Time;durP1;ratioP1;P1;durP2;ratioP2;P2;SDS_P1;SDS_P2;PMS_P1;PMS_P2;Temp;Humidity;BMP_temperature;BMP_pressure;BME280_temperature;BME280_humidity;BME280_pressure;Samples;Min_cycle;Max_cycle;Signal;HPM_P1;HPM_P2
2023/01/18 00:00:33;;;;;;;12.77;8.47;;;;;;;;;;775775;179;920270;-60
2023/01/18 00:02:59;;;;;;;9.67;6.50;;;;;;;;;;777988;181;919191;-61
2023/01/18 00:05:25;;;;;;;15.30;7.13;;;;;;;;;;771091;181;920132;-65
2023/01/18 00:07:51;;;;;;;10.80;7.17;;;;;;;;;;768358;181;917923;-60
2023/01/18 00:10:17;;;;;;;8.70;5.57;;;;;;;;;;774099;181;919695;-60
2023/01/18 00:12:43;;;;;;;8.33;4.40;;;;;;;;;;772774;181;919052;-64
2023/01/18 00:15:09;;;;;;;14.53;6.13;;;;;;;;;;770320;180;920585;-63
2023/01/18 00:17:46;;;;;;;12.53;6.13;;;;;;;;;;770412;180;918947;-61
2023/01/18 00:20:01;;;;;;;6.67;4.40;;;;;;;;;;772197;181;920640;-66
2023/01/18 00:22:27;;;;;;;7.50;4.00;;;;;;;;;;768867;181;920854;-60
2023/01/18 00:24:53;;;;;;;12.83;6.07;;;;;;;;;;771923;179;919368;-60
2023/01/18 00:27:20;;;;;;;14.10;6.73;;;;;;;;;;775242;179;918732;-60
2023/01/18 00:29:44;;;;;;;7.47;5.10;;;;;;;;;;764025;181;919318;-65
2023/01/18 00:32:10;;;;;;;11.80;5.10;;;;;;;;;;760351;182;919120;-64
2023/01/18 00:34:36;;;;;;;5.63;3.50;;;;;;;;;;769714;181;947881;-60
2023/01/18 00:37:02;;;;;;;8.90;4.83;;;;;;;;;;763051;181;919771;-65
2023/01/18 00:39:28;;;;;;;7.23;4.73;;;;;;;;;;750742;184;919569;-61
2023/01/18 00:44:25;;;;;;;4.90;3.15;;;;;;;;;;766012;183;919170;-60
2023/01/18 00:46:51;;;;;;;6.90;4.00;;;;;;;;;;764684;182;918066;-60
2023/01/18 00:49:17;;;;;;;7.33;5.20;;;;;;;;;;767601;181;936991;-63
2023/01/18 00:51:43;;;;;;;6.60;4.90;;;;;;;;;;777626;179;920457;-65
2023/01/18 00:54:09;;;;;;;8.53;5.23;;;;;;;;;;768041;179;919478;-64
2023/01/18 00:56:34;;;;;;;8.90;5.70;;;;;;;;;;769907;182;920149;-60
2023/01/18 00:59:01;;;;;;;11.63;5.35;;;;;;;;;;780851;179;920474;-64
2023/01/18 01:01:27;;;;;;;11.30;4.30;;;;;;;;;;765995;183;918670;-64
2023/01/18 01:06:58;;;;;;;9.87;5.90;;;;;;;;;;756637;184;918146;-64
2023/01/18 01:09:07;;;;;;;7.13;5.80;;;;;;;;;;774524;180;915378;-65
2023/01/18 01:11:33;;;;;;;7.03;5.00;;;;;;;;;;784290;180;823351;-61
2023/01/18 01:26:37;;;;;;;8.67;5.53;;;;;;;;;;761020;184;887293;-63
2023/01/18 01:29:03;;;;;;;10.43;7.20;;;;;;;;;;747572;184;916344;-62
2023/01/18 01:31:29;;;;;;;7.93;6.40;;;;;;;;;;769266;180;918005;-63
2023/01/18 01:33:54;;;;;;;5.77;3.57;;;;;;;;;;775334;181;916992;-64
2023/01/18 01:36:24;;;;;;;14.20;8.88;;;;;;;;;;768600;180;920685;-60
2023/01/18 01:38:46;;;;;;;14.37;7.87;;;;;;;;;;769662;179;1021744;-60
2023/01/18 01:41:13;;;;;;;14.10;9.10;;;;;;;;;;777464;179;919806;-63
2023/01/18 01:43:39;;;;;;;12.47;7.10;;;;;;;;;;766355;179;918916;-64
2023/01/18 01:46:04;;;;;;;8.23;6.03;;;;;;;;;;760159;182;919297;-60
2023/01/18 01:48:30;;;;;;;12.88;7.12;;;;;;;;;;767915;182;919593;-61
2023/01/18 01:50:56;;;;;;;14.10;7.27;;;;;;;;;;770503;179;918695;-61
2023/01/18 01:53:22;;;;;;;10.10;5.37;;;;;;;;;;769589;181;1023162;-60
2023/01/18 01:55:48;;;;;;;13.30;7.95;;;;;;;;;;778254;179;1021341;-63
2023/01/18 01:58:15;;;;;;;9.90;5.40;;;;;;;;;;775982;180;918801;-60
2023/01/18 02:00:41;;;;;;;20.23;8.90;;;;;;;;;;772774;180;918779;-60
2023/01/18 02:03:07;;;;;;;10.77;7.10;;;;;;;;;;773404;180;916089;-61
2023/01/18 02:05:33;;;;;;;17.83;10.27;;;;;;;;;;772012;180;880057;-63
2023/01/18 02:07:59;;;;;;;8.50;5.17;;;;;;;;;;770982;180;916872;-61
2023/01/18 02:10:24;;;;;;;8.30;4.47;;;;;;;;;;771519;179;859755;-63
2023/01/18 02:12:50;;;;;;;9.00;6.10;;;;;;;;;;779766;181;917445;-60
2023/01/18 02:15:16;;;;;;;4.53;3.70;;;;;;;;;;781257;179;944190;-61
2023/01/18 02:18:02;;;;;;;11.60;7.10;;;;;;;;;;772251;179;919455;-64
2023/01/18 02:20:39;;;;;;;14.77;9.88;;;;;;;;;;763944;180;919156;-60
2023/01/18 02:23:21;;;;;;;8.83;6.57;;;;;;;;;;762277;182;917599;-64
2023/01/18 02:25:53;;;;;;;6.97;4.40;;;;;;;;;;775852;179;920412;-61
2023/01/18 02:28:19;;;;;;;8.50;5.80;;;;;;;;;;774927;179;916680;-60
2023/01/18 02:30:45;;;;;;;14.53;7.10;;;;;;;;;;774938;181;918632;-59
2023/01/18 02:33:17;;;;;;;9.43;4.83;;;;;;;;;;769967;180;918389;-62
2023/01/18 02:35:43;;;;;;;10.83;6.27;;;;;;;;;;769157;180;919290;-63
2023/01/18 02:38:09;;;;;;;12.07;6.13;;;;;;;;;;774182;181;919993;-60
2023/01/18 02:40:36;;;;;;;13.00;7.40;;;;;;;;;;760431;183;916595;-60
2023/01/18 02:48:06;;;;;;;6.17;3.90;;;;;;;;;;770112;180;920669;-62
2023/01/18 02:50:31;;;;;;;11.07;7.30;;;;;;;;;;771158;181;920696;-63
2023/01/18 02:52:57;;;;;;;10.40;7.20;;;;;;;;;;767798;182;920017;-59
2023/01/18 02:55:24;;;;;;;8.25;4.87;;;;;;;;;;765739;181;919027;-59
2023/01/18 02:57:50;;;;;;;10.47;5.13;;;;;;;;;;777356;180;919577;-63
2023/01/18 03:00:17;;;;;;;8.10;5.70;;;;;;;;;;776236;179;919410;-60
2023/01/18 03:02:41;;;;;;;13.93;6.83;;;;;;;;;;760949;182;816770;-63
2023/01/18 03:05:09;;;;;;;16.90;8.30;;;;;;;;;;773740;180;918202;-60
2023/01/18 03:07:34;;;;;;;14.50;5.73;;;;;;;;;;775362;179;916651;-60
2023/01/18 03:10:00;;;;;;;14.13;8.23;;;;;;;;;;771431;180;918572;-63
2023/01/18 03:12:26;;;;;;;12.80;8.67;;;;;;;;;;770204;181;919421;-60
2023/01/18 03:14:54;;;;;;;15.50;9.50;;;;;;;;;;772045;182;919245;-63
2023/01/18 03:17:30;;;;;;;18.23;8.90;;;;;;;;;;770079;180;918780;-63
2023/01/18 03:25:00;;;;;;;18.03;10.70;;;;;;;;;;776136;180;918044;-60
2023/01/18 03:35:02;;;;;;;22.97;12.50;;;;;;;;;;766825;181;919598;-61
2023/01/18 03:37:27;;;;;;;26.62;14.43;;;;;;;;;;775978;181;902497;-64
2023/01/18 03:39:53;;;;;;;19.80;8.80;;;;;;;;;;769977;181;920448;-63
2023/01/18 03:42:34;;;;;;;20.53;10.67;;;;;;;;;;772805;181;926609;-64
2023/01/18 03:44:59;;;;;;;21.70;13.50;;;;;;;;;;775522;180;918702;-64
2023/01/18 03:47:25;;;;;;;19.50;12.33;;;;;;;;;;761223;180;918041;-60
2023/01/18 03:49:51;;;;;;;24.20;12.73;;;;;;;;;;760345;181;907862;-64
2023/01/18 03:52:20;;;;;;;12.80;6.73;;;;;;;;;;764783;181;919913;-64
2023/01/18 03:54:46;;;;;;;21.80;12.97;;;;;;;;;;777491;180;912586;-64
2023/01/18 03:57:16;;;;;;;18.33;11.00;;;;;;;;;;760450;184;916779;-60
2023/01/18 03:59:41;;;;;;;19.17;12.63;;;;;;;;;;768323;181;920186;-65
2023/01/18 04:02:07;;;;;;;23.33;15.57;;;;;;;;;;765715;180;919142;-61
2023/01/18 04:04:33;;;;;;;22.33;14.07;;;;;;;;;;769790;180;912861;-65
2023/01/18 04:06:59;;;;;;;27.40;12.30;;;;;;;;;;767929;181;920509;-60
2023/01/18 04:09:25;;;;;;;30.57;17.23;;;;;;;;;;773472;180;916424;-64
2023/01/18 04:11:50;;;;;;;29.60;16.30;;;;;;;;;;779201;180;819486;-64
2023/01/18 04:14:16;;;;;;;23.40;14.30;;;;;;;;;;777942;180;820501;-60
2023/01/18 04:16:42;;;;;;;30.07;16.07;;;;;;;;;;762699;181;918106;-60
2023/01/18 04:19:08;;;;;;;30.15;15.82;;;;;;;;;;765358;181;869749;-61
2023/01/18 04:21:34;;;;;;;41.80;21.37;;;;;;;;;;775775;180;908601;-60
2023/01/18 04:24:00;;;;;;;37.47;23.50;;;;;;;;;;770879;181;919254;-64
2023/01/18 04:26:26;;;;;;;54.67;33.80;;;;;;;;;;774939;180;919238;-65
2023/01/18 04:28:51;;;;;;;32.37;18.83;;;;;;;;;;780266;180;919426;-60
2023/01/18 04:31:17;;;;;;;32.13;19.23;;;;;;;;;;766962;180;925128;-64
2023/01/18 04:33:43;;;;;;;34.87;18.40;;;;;;;;;;766712;181;917140;-65
2023/01/18 04:36:09;;;;;;;21.40;12.73;;;;;;;;;;773290;181;919541;-66
2023/01/18 04:38:35;;;;;;;33.93;18.60;;;;;;;;;;771153;180;920230;-60
2023/01/18 04:41:01;;;;;;;31.47;18.23;;;;;;;;;;775508;179;918585;-61
2023/01/18 04:43:28;;;;;;;24.20;12.57;;;;;;;;;;777053;179;922442;-64
2023/01/18 04:45:53;;;;;;;28.93;17.73;;;;;;;;;;764252;181;919523;-64
2023/01/18 04:48:19;;;;;;;30.37;17.30;;;;;;;;;;767549;181;919189;-64
2023/01/18 04:50:47;;;;;;;31.30;17.40;;;;;;;;;;770619;181;918524;-65
2023/01/18 04:53:11;;;;;;;50.20;30.20;;;;;;;;;;772927;179;915780;-64
2023/01/18 04:55:36;;;;;;;23.85;15.77;;;;;;;;;;768106;181;916521;-65
2023/01/18 04:58:02;;;;;;;32.10;18.30;;;;;;;;;;771239;181;919043;-60
2023/01/18 05:00:28;;;;;;;27.90;18.30;;;;;;;;;;776569;180;920693;-61
2023/01/18 05:02:54;;;;;;;25.48;15.20;;;;;;;;;;767827;180;816040;-61
2023/01/18 05:05:20;;;;;;;30.47;18.50;;;;;;;;;;777941;180;629377;-65
2023/01/18 05:07:46;;;;;;;36.80;19.20;;;;;;;;;;777767;179;918763;-65
2023/01/18 05:10:11;;;;;;;36.40;20.23;;;;;;;;;;775556;180;816559;-61
2023/01/18 05:12:37;;;;;;;35.03;16.70;;;;;;;;;;774077;179;919865;-65
2023/01/18 05:15:04;;;;;;;24.70;15.23;;;;;;;;;;775280;181;620508;-62
2023/01/18 05:17:29;;;;;;;28.15;15.98;;;;;;;;;;776950;180;1020562;-65
2023/01/18 05:19:55;;;;;;;30.10;18.37;;;;;;;;;;773352;181;632371;-61
2023/01/18 05:22:21;;;;;;;26.90;16.57;;;;;;;;;;773295;180;627584;-61
2023/01/18 05:24:47;;;;;;;25.90;15.80;;;;;;;;;;773398;181;919406;-65
2023/01/18 05:27:13;;;;;;;22.50;15.23;;;;;;;;;;773736;180;848886;-61
2023/01/18 05:29:39;;;;;;;24.90;14.47;;;;;;;;;;774265;180;817017;-61
2023/01/18 05:32:05;;;;;;;25.40;12.93;;;;;;;;;;780586;178;816636;-61
2023/01/18 05:34:31;;;;;;;25.17;13.63;;;;;;;;;;774010;180;911208;-61
2023/01/18 05:36:57;;;;;;;24.00;14.18;;;;;;;;;;770389;180;943874;-65
2023/01/18 05:39:23;;;;;;;24.03;13.90;;;;;;;;;;766932;181;921477;-62
2023/01/18 05:41:49;;;;;;;21.20;13.20;;;;;;;;;;767962;181;918528;-61
2023/01/18 05:44:14;;;;;;;27.53;17.00;;;;;;;;;;769030;180;918843;-67
2023/01/18 05:46:40;;;;;;;24.52;13.27;;;;;;;;;;768490;179;919202;-61
2023/01/18 05:49:06;;;;;;;25.97;14.90;;;;;;;;;;774690;181;919856;-61
2023/01/18 05:51:32;;;;;;;30.10;15.33;;;;;;;;;;772772;180;918763;-61
2023/01/18 05:53:58;;;;;;;22.90;13.20;;;;;;;;;;773848;180;841612;-65
2023/01/18 05:56:24;;;;;;;27.63;16.37;;;;;;;;;;775318;180;815887;-61
2023/01/18 05:58:49;;;;;;;22.90;13.10;;;;;;;;;;768863;181;917797;-61
2023/01/18 06:01:15;;;;;;;27.67;16.67;;;;;;;;;;771681;180;919159;-65
2023/01/18 06:03:42;;;;;;;24.48;15.00;;;;;;;;;;772855;181;918013;-61
2023/01/18 06:06:08;;;;;;;22.17;12.97;;;;;;;;;;771290;182;818903;-61
2023/01/18 06:08:34;;;;;;;27.27;17.50;;;;;;;;;;770835;181;883320;-61
2023/01/18 06:11:00;;;;;;;26.90;15.90;;;;;;;;;;770292;180;894972;-65
2023/01/18 06:13:27;;;;;;;51.22;25.08;;;;;;;;;;780071;179;920487;-67
2023/01/18 06:15:54;;;;;;;43.70;22.80;;;;;;;;;;765311;181;818673;-61
2023/01/18 06:18:20;;;;;;;34.00;18.67;;;;;;;;;;765702;182;629128;-65
2023/01/18 06:20:46;;;;;;;25.40;15.10;;;;;;;;;;778087;180;617292;-62
2023/01/18 06:23:12;;;;;;;29.67;17.70;;;;;;;;;;768878;181;914732;-61
2023/01/18 06:25:37;;;;;;;24.00;14.30;;;;;;;;;;771108;180;925402;-65
2023/01/18 06:28:04;;;;;;;26.97;16.97;;;;;;;;;;773890;181;920728;-61
2023/01/18 06:30:29;;;;;;;24.73;15.60;;;;;;;;;;761745;183;919103;-61
2023/01/18 06:32:55;;;;;;;27.13;17.00;;;;;;;;;;758405;183;919307;-61
2023/01/18 06:35:22;;;;;;;29.17;17.63;;;;;;;;;;760590;180;1016130;-61
2023/01/18 06:37:47;;;;;;;33.10;17.73;;;;;;;;;;780418;180;919425;-61
2023/01/18 06:40:13;;;;;;;29.07;17.47;;;;;;;;;;767458;180;918496;-65
2023/01/18 06:42:39;;;;;;;27.80;18.33;;;;;;;;;;769550;181;921418;-64
2023/01/18 06:45:05;;;;;;;29.90;16.93;;;;;;;;;;775722;180;919878;-60
2023/01/18 06:47:31;;;;;;;32.37;17.90;;;;;;;;;;772486;181;919225;-65
2023/01/18 06:49:56;;;;;;;41.90;24.13;;;;;;;;;;765398;180;918745;-64
2023/01/18 06:52:22;;;;;;;30.93;16.93;;;;;;;;;;769737;181;1023708;-64
2023/01/18 06:54:48;;;;;;;34.03;19.97;;;;;;;;;;776052;181;919387;-62
2023/01/18 06:57:14;;;;;;;41.67;25.23;;;;;;;;;;765492;181;921690;-60
2023/01/18 06:59:40;;;;;;;39.30;28.37;;;;;;;;;;762790;182;818486;-63
2023/01/18 07:02:06;;;;;;;31.07;21.17;;;;;;;;;;773658;181;919253;-61
2023/01/18 07:04:31;;;;;;;41.97;22.70;;;;;;;;;;770518;179;909478;-61
2023/01/18 07:06:57;;;;;;;31.00;20.53;;;;;;;;;;775398;179;918090;-60
2023/01/18 07:09:23;;;;;;;35.83;20.30;;;;;;;;;;779514;180;917408;-60
2023/01/18 07:11:49;;;;;;;32.97;20.40;;;;;;;;;;768985;180;918253;-60
2023/01/18 07:14:15;;;;;;;32.30;22.27;;;;;;;;;;771389;181;866538;-62
2023/01/18 07:16:41;;;;;;;35.50;20.90;;;;;;;;;;777584;180;818023;-61
2023/01/18 07:19:07;;;;;;;34.27;22.17;;;;;;;;;;770631;181;918618;-61
2023/01/18 07:21:32;;;;;;;37.67;21.70;;;;;;;;;;766059;182;919181;-61
2023/01/18 07:23:58;;;;;;;35.15;19.98;;;;;;;;;;770764;180;932491;-60
2023/01/18 07:26:24;;;;;;;32.50;20.17;;;;;;;;;;772109;180;896044;-63
2023/01/18 07:28:50;;;;;;;41.20;22.67;;;;;;;;;;772317;180;920810;-64
2023/01/18 07:31:17;;;;;;;36.03;20.60;;;;;;;;;;773211;180;818899;-65
2023/01/18 07:33:42;;;;;;;31.80;20.83;;;;;;;;;;775154;181;918894;-64
2023/01/18 07:36:09;;;;;;;28.63;19.63;;;;;;;;;;769387;180;919544;-64
2023/01/18 07:38:34;;;;;;;29.77;17.10;;;;;;;;;;768981;181;919801;-61
2023/01/18 07:41:01;;;;;;;33.47;19.75;;;;;;;;;;773763;181;925003;-63
2023/01/18 07:43:27;;;;;;;31.33;18.10;;;;;;;;;;770690;181;920653;-62
2023/01/18 07:45:53;;;;;;;26.37;17.43;;;;;;;;;;772754;180;920529;-64
2023/01/18 07:48:19;;;;;;;32.93;18.23;;;;;;;;;;772310;181;919948;-61
2023/01/18 07:50:53;;;;;;;29.97;16.93;;;;;;;;;;778553;181;816628;-61
2023/01/18 07:53:19;;;;;;;25.77;14.67;;;;;;;;;;769983;179;916108;-64
2023/01/18 07:55:45;;;;;;;34.75;17.98;;;;;;;;;;773244;180;918930;-63
2023/01/18 07:58:11;;;;;;;26.50;17.05;;;;;;;;;;779506;180;919286;-60
2023/01/18 08:00:37;;;;;;;36.80;17.67;;;;;;;;;;776568;181;918282;-60
2023/01/18 08:03:03;;;;;;;31.23;18.20;;;;;;;;;;771121;180;918612;-61
2023/01/18 08:05:29;;;;;;;29.70;17.47;;;;;;;;;;771523;181;921156;-64
2023/01/18 08:07:54;;;;;;;26.83;16.30;;;;;;;;;;780878;181;918539;-63
2023/01/18 08:10:20;;;;;;;25.55;16.27;;;;;;;;;;775859;181;919564;-61
2023/01/18 08:12:46;;;;;;;29.57;18.27;;;;;;;;;;766449;180;919922;-66
2023/01/18 08:15:12;;;;;;;25.57;16.70;;;;;;;;;;778698;179;816744;-61
2023/01/18 08:17:38;;;;;;;27.27;16.70;;;;;;;;;;768977;181;919901;-63
2023/01/18 08:20:04;;;;;;;28.90;16.07;;;;;;;;;;779979;179;917782;-61
2023/01/18 08:22:30;;;;;;;28.90;16.27;;;;;;;;;;759778;179;919012;-61
2023/01/18 08:24:56;;;;;;;31.47;17.07;;;;;;;;;;747908;184;920637;-63
2023/01/18 08:27:21;;;;;;;26.83;18.30;;;;;;;;;;749600;184;916878;-60
2023/01/18 08:29:47;;;;;;;33.43;19.20;;;;;;;;;;753883;185;916769;-61
2023/01/18 08:32:13;;;;;;;32.40;20.27;;;;;;;;;;763749;184;940239;-64
2023/01/18 08:34:39;;;;;;;30.30;17.80;;;;;;;;;;758837;184;1018032;-63
2023/01/18 08:37:05;;;;;;;31.37;17.53;;;;;;;;;;754978;184;918581;-64
2023/01/18 08:39:31;;;;;;;33.27;18.67;;;;;;;;;;762612;184;918969;-62
2023/01/18 08:41:56;;;;;;;31.00;17.67;;;;;;;;;;756996;184;919202;-60
2023/01/18 08:44:22;;;;;;;37.10;18.10;;;;;;;;;;754592;184;919695;-61
2023/01/18 08:46:48;;;;;;;34.50;18.37;;;;;;;;;;758295;184;814950;-64
2023/01/18 08:49:15;;;;;;;35.95;18.60;;;;;;;;;;750295;185;919438;-61
2023/01/18 08:51:40;;;;;;;25.50;16.43;;;;;;;;;;752831;184;919528;-64
2023/01/18 08:54:06;;;;;;;36.00;18.67;;;;;;;;;;776091;180;919185;-63
2023/01/18 08:56:32;;;;;;;31.48;17.58;;;;;;;;;;772695;180;917984;-65
2023/01/18 08:58:58;;;;;;;38.77;19.67;;;;;;;;;;771828;180;930577;-64
2023/01/18 09:01:23;;;;;;;31.00;17.70;;;;;;;;;;772032;180;918780;-61
2023/01/18 09:03:49;;;;;;;34.17;19.50;;;;;;;;;;775831;180;919998;-64
2023/01/18 09:06:15;;;;;;;32.43;17.70;;;;;;;;;;769140;180;923494;-64
2023/01/18 09:08:41;;;;;;;32.13;16.50;;;;;;;;;;763926;182;918761;-65
2023/01/18 09:11:07;;;;;;;28.93;16.67;;;;;;;;;;775757;181;920248;-64
2023/01/18 09:13:33;;;;;;;34.27;18.40;;;;;;;;;;778412;180;868937;-64
2023/01/18 09:15:58;;;;;;;28.50;17.80;;;;;;;;;;775397;180;916256;-61
2023/01/18 09:18:25;;;;;;;38.08;18.80;;;;;;;;;;778187;180;920878;-61
2023/01/18 09:20:53;;;;;;;34.80;20.73;;;;;;;;;;774084;181;816520;-64
2023/01/18 09:23:17;;;;;;;32.33;20.30;;;;;;;;;;775289;181;818431;-65
2023/01/18 09:25:43;;;;;;;45.03;22.00;;;;;;;;;;773411;179;919182;-64
2023/01/18 09:28:08;;;;;;;36.47;18.97;;;;;;;;;;772188;181;919314;-61
2023/01/18 09:30:34;;;;;;;37.07;20.10;;;;;;;;;;769208;181;919021;-64
2023/01/18 09:33:00;;;;;;;32.67;19.00;;;;;;;;;;773119;180;914626;-61
2023/01/18 09:35:26;;;;;;;34.07;16.57;;;;;;;;;;772357;181;818982;-61
2023/01/18 09:37:52;;;;;;;41.60;21.73;;;;;;;;;;762983;182;817910;-61
2023/01/18 09:40:18;;;;;;;34.47;17.70;;;;;;;;;;767973;181;908826;-65
2023/01/18 09:42:43;;;;;;;28.60;18.50;;;;;;;;;;772250;180;636956;-65
2023/01/18 09:45:09;;;;;;;32.83;18.93;;;;;;;;;;758424;184;916654;-61
2023/01/18 09:47:36;;;;;;;30.50;18.23;;;;;;;;;;764738;180;919039;-65
2023/01/18 09:50:02;;;;;;;32.60;20.07;;;;;;;;;;771231;181;919381;-65
2023/01/18 09:52:34;;;;;;;26.17;15.63;;;;;;;;;;772971;181;915724;-61
2023/01/18 09:55:01;;;;;;;33.57;17.93;;;;;;;;;;771376;181;915613;-61
2023/01/18 09:57:33;;;;;;;33.83;19.20;;;;;;;;;;776426;180;777284;-61
2023/01/18 09:59:59;;;;;;;35.33;18.60;;;;;;;;;;773082;180;917349;-61
2023/01/18 10:02:25;;;;;;;35.40;20.73;;;;;;;;;;779548;181;622396;-68
2023/01/18 10:04:52;;;;;;;38.07;19.90;;;;;;;;;;769547;181;915272;-61
2023/01/18 10:07:18;;;;;;;34.07;19.87;;;;;;;;;;768666;181;942059;-62
2023/01/18 10:09:44;;;;;;;37.60;21.63;;;;;;;;;;778570;180;919208;-65
2023/01/18 10:12:28;;;;;;;32.75;19.48;;;;;;;;;;773555;180;919201;-61
2023/01/18 10:14:54;;;;;;;31.07;19.00;;;;;;;;;;769327;180;919313;-65
2023/01/18 10:17:21;;;;;;;36.00;19.83;;;;;;;;;;775092;180;921848;-65
2023/01/18 10:19:46;;;;;;;33.67;21.10;;;;;;;;;;775879;180;863914;-62
2023/01/18 10:22:14;;;;;;;35.10;20.43;;;;;;;;;;781166;180;919957;-61
2023/01/18 10:24:39;;;;;;;35.13;19.83;;;;;;;;;;775399;180;918317;-65
2023/01/18 10:27:09;;;;;;;34.53;18.47;;;;;;;;;;772596;180;901072;-66
2023/01/18 10:29:39;;;;;;;40.90;19.60;;;;;;;;;;774390;181;895071;-66
2023/01/18 10:32:09;;;;;;;32.77;19.60;;;;;;;;;;778916;180;817464;-65
2023/01/18 10:34:34;;;;;;;36.37;20.17;;;;;;;;;;772089;180;918985;-61
2023/01/18 10:37:01;;;;;;;35.50;20.63;;;;;;;;;;771747;181;919147;-67
2023/01/18 10:39:28;;;;;;;31.97;19.87;;;;;;;;;;773046;181;916212;-65
2023/01/18 10:41:54;;;;;;;30.03;17.97;;;;;;;;;;770966;181;919369;-61
2023/01/18 10:44:20;;;;;;;35.22;20.83;;;;;;;;;;761218;181;919438;-66
2023/01/18 10:46:45;;;;;;;38.10;20.83;;;;;;;;;;767636;181;918917;-65
2023/01/18 10:49:11;;;;;;;40.80;22.80;;;;;;;;;;774233;181;919230;-65
2023/01/18 10:51:39;;;;;;;43.60;22.60;;;;;;;;;;772214;181;918845;-65
2023/01/18 10:54:09;;;;;;;39.10;22.30;;;;;;;;;;770413;181;919131;-65
2023/01/18 10:56:34;;;;;;;45.63;24.30;;;;;;;;;;774314;181;921536;-61
2023/01/18 10:59:00;;;;;;;38.80;22.53;;;;;;;;;;759310;182;919078;-61
2023/01/18 11:01:27;;;;;;;45.37;22.83;;;;;;;;;;759518;182;915165;-61
2023/01/18 11:03:53;;;;;;;43.33;23.67;;;;;;;;;;776356;181;918196;-64
2023/01/18 11:06:20;;;;;;;36.53;21.70;;;;;;;;;;768627;180;917250;-64
2023/01/18 11:08:45;;;;;;;40.50;21.67;;;;;;;;;;767233;181;819975;-61
2023/01/18 11:11:14;;;;;;;40.70;21.90;;;;;;;;;;763024;183;919031;-61
2023/01/18 11:13:41;;;;;;;36.77;23.20;;;;;;;;;;773156;181;919360;-61
2023/01/18 11:16:09;;;;;;;37.63;22.00;;;;;;;;;;767231;181;919346;-61
2023/01/18 11:18:35;;;;;;;32.10;19.10;;;;;;;;;;768194;181;918527;-64
2023/01/18 11:21:00;;;;;;;34.85;20.65;;;;;;;;;;776960;181;917514;-64
2023/01/18 11:23:30;;;;;;;35.03;19.80;;;;;;;;;;774032;181;908666;-64
2023/01/18 11:25:56;;;;;;;29.30;17.47;;;;;;;;;;780276;180;913987;-65
2023/01/18 11:28:23;;;;;;;29.53;16.87;;;;;;;;;;763539;182;818692;-64
2023/01/18 11:30:49;;;;;;;26.73;16.90;;;;;;;;;;771890;180;817226;-61
2023/01/18 11:33:16;;;;;;;33.08;16.40;;;;;;;;;;767949;181;918389;-61
2023/01/18 11:35:41;;;;;;;29.20;17.67;;;;;;;;;;775187;180;917963;-61
2023/01/18 11:38:09;;;;;;;25.37;15.13;;;;;;;;;;777252;180;912983;-66
2023/01/18 11:40:33;;;;;;;25.07;15.67;;;;;;;;;;760017;181;908707;-65
2023/01/18 11:43:00;;;;;;;22.50;14.10;;;;;;;;;;773741;180;921079;-60
2023/01/18 11:45:25;;;;;;;25.23;15.20;;;;;;;;;;773372;180;919730;-61
2023/01/18 11:48:09;;;;;;;19.00;13.07;;;;;;;;;;781681;180;919139;-61
2023/01/18 11:50:35;;;;;;;25.70;15.10;;;;;;;;;;777849;179;792243;-64
2023/01/18 11:53:03;;;;;;;27.83;15.13;;;;;;;;;;772406;180;918497;-65
2023/01/18 11:55:30;;;;;;;27.07;15.40;;;;;;;;;;768732;180;918699;-61
2023/01/18 11:57:53;;;;;;;19.95;12.70;;;;;;;;;;775038;181;918391;-64
2023/01/18 12:00:26;;;;;;;22.90;14.90;;;;;;;;;;759265;182;919350;-64
2023/01/18 12:02:55;;;;;;;20.50;13.90;;;;;;;;;;771378;180;901056;-64
2023/01/18 12:05:31;;;;;;;23.20;13.80;;;;;;;;;;773694;180;918730;-65
2023/01/18 12:08:00;;;;;;;16.00;11.13;;;;;;;;;;764641;180;782025;-61
2023/01/18 12:10:25;;;;;;;20.20;13.20;;;;;;;;;;781768;181;817207;-64
2023/01/18 12:12:54;;;;;;;19.10;12.40;;;;;;;;;;776901;181;816690;-65
2023/01/18 12:15:21;;;;;;;15.03;10.53;;;;;;;;;;773254;180;817178;-61
2023/01/18 12:17:54;;;;;;;19.23;10.30;;;;;;;;;;778820;180;909731;-61
2023/01/18 12:20:21;;;;;;;17.33;11.70;;;;;;;;;;778336;180;916893;-61
2023/01/18 12:22:46;;;;;;;19.73;11.30;;;;;;;;;;774585;180;848524;-61
2023/01/18 12:25:26;;;;;;;23.07;12.27;;;;;;;;;;772649;181;916332;-61
2023/01/18 12:27:51;;;;;;;21.00;11.20;;;;;;;;;;770590;181;919513;-66
2023/01/18 12:30:28;;;;;;;19.00;11.53;;;;;;;;;;778858;180;911032;-61
2023/01/18 12:33:04;;;;;;;19.90;11.43;;;;;;;;;;782653;180;884114;-61
2023/01/18 12:35:31;;;;;;;16.90;9.90;;;;;;;;;;774341;180;913965;-61
2023/01/18 12:37:59;;;;;;;11.60;9.00;;;;;;;;;;769239;180;919119;-67
2023/01/18 12:40:42;;;;;;;15.00;8.43;;;;;;;;;;762279;180;933290;-66
2023/01/18 12:43:13;;;;;;;14.40;9.57;;;;;;;;;;762472;182;918448;-66
2023/01/18 12:45:39;;;;;;;14.93;8.90;;;;;;;;;;777602;179;919320;-65
2023/01/18 12:48:07;;;;;;;12.93;6.80;;;;;;;;;;773284;179;910415;-66
2023/01/18 12:50:33;;;;;;;13.80;9.30;;;;;;;;;;769737;180;916153;-65
2023/01/18 12:52:59;;;;;;;17.02;8.73;;;;;;;;;;770487;180;911866;-65
2023/01/18 12:55:25;;;;;;;14.10;9.27;;;;;;;;;;772901;180;919154;-65
2023/01/18 12:57:50;;;;;;;14.73;10.17;;;;;;;;;;769632;181;920926;-61
2023/01/18 13:00:20;;;;;;;13.20;8.70;;;;;;;;;;765630;180;920507;-61
2023/01/18 13:02:46;;;;;;;13.90;9.20;;;;;;;;;;768751;181;816395;-65
2023/01/18 13:05:18;;;;;;;15.37;10.63;;;;;;;;;;769721;180;918910;-65
2023/01/18 13:07:45;;;;;;;14.43;9.50;;;;;;;;;;762616;181;921095;-61
2023/01/18 13:10:12;;;;;;;13.82;8.52;;;;;;;;;;768875;180;912933;-65
2023/01/18 13:12:38;;;;;;;12.47;8.70;;;;;;;;;;774302;181;823261;-61
2023/01/18 13:15:04;;;;;;;13.87;9.33;;;;;;;;;;764636;181;816349;-61
2023/01/18 13:17:30;;;;;;;10.97;7.70;;;;;;;;;;766748;182;920102;-61
2023/01/18 13:19:59;;;;;;;15.23;9.00;;;;;;;;;;770139;180;919349;-65
2023/01/18 13:22:34;;;;;;;11.17;7.17;;;;;;;;;;760309;181;939615;-66
2023/01/18 13:25:07;;;;;;;10.73;7.80;;;;;;;;;;772264;181;908014;-61
2023/01/18 13:27:33;;;;;;;11.57;7.97;;;;;;;;;;770442;180;813858;-66
2023/01/18 13:29:59;;;;;;;13.90;8.83;;;;;;;;;;770836;180;898666;-66
2023/01/18 13:32:28;;;;;;;12.50;8.83;;;;;;;;;;778367;179;918357;-65
2023/01/18 13:34:57;;;;;;;10.17;7.40;;;;;;;;;;770942;180;918330;-66
2023/01/18 13:37:28;;;;;;;9.35;6.97;;;;;;;;;;769779;181;933463;-61
2023/01/18 13:39:54;;;;;;;9.67;7.00;;;;;;;;;;770933;180;916599;-61
2023/01/18 13:42:23;;;;;;;8.53;6.60;;;;;;;;;;774248;180;922311;-66
2023/01/18 13:44:49;;;;;;;10.38;7.10;;;;;;;;;;768570;180;919771;-61
2023/01/18 13:47:21;;;;;;;9.70;7.27;;;;;;;;;;766511;181;920370;-61
2023/01/18 13:49:46;;;;;;;12.70;8.70;;;;;;;;;;766271;181;919462;-61
2023/01/18 13:52:18;;;;;;;10.53;7.90;;;;;;;;;;778005;180;909481;-66
2023/01/18 13:55:00;;;;;;;10.47;8.27;;;;;;;;;;773409;179;920504;-61
2023/01/18 13:57:25;;;;;;;8.02;6.50;;;;;;;;;;771254;179;919700;-61
2023/01/18 13:59:51;;;;;;;12.40;6.53;;;;;;;;;;768178;181;918180;-66
2023/01/18 14:02:40;;;;;;;8.43;6.73;;;;;;;;;;779758;179;865320;-65
2023/01/18 14:05:04;;;;;;;9.53;6.90;;;;;;;;;;772280;181;907800;-67
2023/01/18 14:07:30;;;;;;;14.50;9.57;;;;;;;;;;775314;180;818183;-66
2023/01/18 14:09:56;;;;;;;10.73;8.13;;;;;;;;;;773421;179;816585;-61
2023/01/18 14:12:38;;;;;;;11.57;7.47;;;;;;;;;;770340;180;919104;-61
2023/01/18 14:15:04;;;;;;;11.10;7.33;;;;;;;;;;770728;180;918119;-61
2023/01/18 14:17:30;;;;;;;9.60;7.70;;;;;;;;;;774077;180;917550;-65
2023/01/18 14:19:58;;;;;;;10.57;8.20;;;;;;;;;;769855;178;914151;-65
2023/01/18 14:22:29;;;;;;;16.13;9.37;;;;;;;;;;773676;181;814559;-60
2023/01/18 14:24:59;;;;;;;23.63;14.60;;;;;;;;;;775788;180;625271;-65
2023/01/18 14:27:25;;;;;;;21.87;13.63;;;;;;;;;;769562;181;866540;-60
2023/01/18 14:29:51;;;;;;;26.57;13.87;;;;;;;;;;769028;181;819771;-61
2023/01/18 14:32:17;;;;;;;22.83;13.00;;;;;;;;;;775098;180;919097;-67
2023/01/18 14:34:43;;;;;;;23.70;13.90;;;;;;;;;;769701;180;875279;-61
2023/01/18 14:37:15;;;;;;;22.40;12.77;;;;;;;;;;767492;180;919112;-61
2023/01/18 14:39:40;;;;;;;15.87;9.93;;;;;;;;;;767510;180;919537;-61
2023/01/18 14:42:06;;;;;;;22.20;14.10;;;;;;;;;;772569;180;919219;-61